createdAt,value
2022-12-01T00:03:12.940Z,34.48829431438127
2022-12-01T00:14:13.500Z,33.86622073578595
2022-12-01T00:20:42.812Z,34.57859531772575
2022-12-01T00:27:10.816Z,33.56521739130435
2022-12-01T00:33:38.550Z,33.17725752508361
2022-12-01T00:40:07.501Z,32.69899665551839
2022-12-01T00:48:15.634Z,32.31103678929766
2022-12-01T00:54:44.278Z,31.96989966555184
2022-12-01T01:06:44.042Z,31.301003344481604
2022-12-01T01:17:13.943Z,30.665551839464882
2022-12-01T01:23:42.028Z,32.07357859531773
2022-12-01T01:30:09.439Z,32.52173913043478
2022-12-01T01:36:36.559Z,33.608695652173914
2022-12-01T01:43:21.845Z,34.45484949832776
2022-12-01T01:50:18.794Z,35.78260869565217
2022-12-01T02:04:51.903Z,37.929765886287626
2022-12-01T02:12:08.221Z,38.95652173913044
2022-12-01T02:25:47.552Z,39.785953177257525
2022-12-01T02:37:33.229Z,39.81605351170568
2022-12-01T02:44:00.269Z,39.80602006688963
2022-12-01T02:50:26.978Z,39.83277591973244
2022-12-01T02:56:54.552Z,41.32107023411371
2022-12-01T03:03:21.746Z,41.474916387959865
2022-12-01T03:09:49.389Z,41.31772575250836
2022-12-01T03:23:45.968Z,40.65551839464883
2022-12-01T03:30:12.428Z,41.01672240802676
2022-12-01T03:48:27.375Z,42.80602006688963
2022-12-01T03:56:29.250Z,42.59531772575251
2022-12-01T04:02:56.031Z,44.23745819397993
2022-12-01T04:13:27.440Z,44.448160535117054
2022-12-01T04:19:53.593Z,45.66220735785953
2022-12-01T04:26:20.021Z,46.03344481605351
2022-12-01T04:44:31.576Z,46.28428093645485
2022-12-01T04:55:23.769Z,46.89297658862876
2022-12-01T05:01:52.779Z,46.90635451505017
2022-12-01T05:08:20.106Z,48.491638795986624
2022-12-01T05:18:09.319Z,47.448160535117054
2022-12-01T05:24:36.665Z,47.635451505016725
2022-12-01T05:31:02.957Z,47.852842809364546
2022-12-01T05:37:30.687Z,48.99665551839465
2022-12-01T05:48:03.211Z,47.819397993311036
2022-12-01T05:54:30.216Z,48.785953177257525
2022-12-01T06:03:38.450Z,48.2876254180602
2022-12-01T06:13:41.204Z,48.19063545150502
2022-12-01T06:20:07.938Z,47.31772575250836
2022-12-01T06:26:42.304Z,46.86622073578595
2022-12-01T06:33:11.410Z,45.836120401337794
2022-12-01T06:47:54.665Z,47.60535117056856
2022-12-01T06:54:22.347Z,46.836120401337794
2022-12-01T07:00:52.540Z,47.14046822742475
2022-12-01T07:07:22.535Z,46.297658862876254
2022-12-01T07:17:54.433Z,46.34782608695652
2022-12-01T07:24:23.249Z,47.280936454849495
2022-12-01T07:30:51.500Z,45.84280936454849
2022-12-01T07:37:19.115Z,47.07357859531773
2022-12-01T07:43:47.907Z,48.448160535117054
2022-12-01T07:50:15.801Z,46.82943143812709
2022-12-01T07:56:44.550Z,47.24414715719063
2022-12-01T08:03:13.033Z,47.642140468227424
2022-12-01T08:11:41.646Z,44.802675585284284
2022-12-01T08:23:07.189Z,44.531772575250834
2022-12-01T08:44:15.473Z,43.12709030100334
2022-12-01T08:57:05.034Z,41.280936454849495
2022-12-01T09:03:34.679Z,40.591973244147155
2022-12-01T09:10:03.459Z,41.709030100334445
2022-12-01T09:16:33.017Z,40.31438127090301
2022-12-01T09:23:02.190Z,40.625418060200666
2022-12-01T09:41:27.182Z,37.96655518394649
2022-12-01T09:52:00.188Z,38.525083612040135
2022-12-01T10:03:10.332Z,37.986622073578594
2022-12-01T10:09:39.875Z,38.852842809364546
2022-12-01T10:16:08.698Z,38.71571906354515
2022-12-01T10:28:07.749Z,36.87959866220736
2022-12-01T10:42:56.143Z,37.94648829431438
2022-12-01T10:49:24.613Z,37.8494983277592
2022-12-01T10:59:12.787Z,36.88628762541806
2022-12-01T11:05:41.826Z,35.2876254180602
2022-12-01T11:12:10.559Z,34.85953177257525
2022-12-01T11:28:06.068Z,35.391304347826086
2022-12-01T11:38:27.188Z,35.214046822742475
2022-12-01T11:49:25.712Z,34.35451505016722
2022-12-01T11:55:54.572Z,35.77591973244147
2022-12-01T12:02:23.730Z,34.4314381270903
2022-12-01T12:14:50.629Z,32.5685618729097
2022-12-01T12:27:25.828Z,34.03678929765886
2022-12-01T12:33:55.004Z,36.2675585284281
2022-12-01T12:40:24.060Z,36.02341137123746
2022-12-01T12:46:52.638Z,34.38795986622073
2022-12-01T12:53:21.626Z,33.54849498327759
2022-12-01T13:10:33.828Z,34.096989966555185
2022-12-01T13:18:06.596Z,32.74581939799331
2022-12-01T13:24:35.728Z,32.50501672240803
2022-12-01T13:31:04.378Z,30.73913043478261
2022-12-01T13:37:32.554Z,30.74916387959866
2022-12-01T13:43:59.971Z,30.97993311036789
2022-12-01T13:50:29.991Z,33.013377926421406
2022-12-01T14:15:55.371Z,31.187290969899667
2022-12-01T14:22:23.969Z,32.608695652173914
2022-12-01T14:36:39.556Z,31.88294314381271
2022-12-01T14:43:15.113Z,31.123745819397993
2022-12-01T14:52:00.262Z,30.558528428093645
2022-12-01T14:58:28.041Z,30.070234113712374
2022-12-01T15:06:05.052Z,29.79933110367893
2022-12-01T15:18:55.784Z,29.82943143812709
2022-12-01T15:29:49.803Z,29.839464882943144
2022-12-01T15:36:17.967Z,30.217391304347824
2022-12-01T15:42:46.169Z,30.337792642140467
2022-12-01T15:49:13.013Z,29.498327759197323
2022-12-01T16:03:30.454Z,30.42809364548495
2022-12-01T16:11:04.025Z,30.722408026755854
2022-12-01T16:17:31.679Z,29.48160535117057
2022-12-01T16:23:58.912Z,27.36454849498328
2022-12-01T16:36:40.771Z,28.7190635451505
2022-12-01T16:43:08.543Z,25.05685618729097
2022-12-01T16:50:03.456Z,23.107023411371237
2022-12-01T17:00:05.536Z,21.5752508361204
2022-12-01T17:06:34.426Z,22.892976588628763
2022-12-01T17:13:01.222Z,21.7190635451505
2022-12-01T17:22:12.308Z,21.327759197324415
2022-12-01T17:30:03.536Z,20.14715719063545
2022-12-01T17:36:35.725Z,19.153846153846153
2022-12-01T17:46:10.451Z,19.26086956521739
2022-12-01T17:52:44.926Z,20.47826086956522
2022-12-01T17:59:13.095Z,19.909698996655518
2022-12-01T18:05:42.967Z,19.387959866220736
2022-12-01T18:15:13.246Z,18.88294314381271
2022-12-01T18:24:32.532Z,18.85284280936455
2022-12-01T18:31:04.406Z,19.183946488294314
2022-12-01T18:37:38.285Z,17.551839464882942
2022-12-01T18:44:09.940Z,18.317725752508363
2022-12-01T18:56:15.376Z,17.91638795986622
2022-12-01T19:11:30.328Z,17.989966555183948
2022-12-01T19:18:08.263Z,15.615384615384615
2022-12-01T19:24:52.980Z,13.2876254180602
2022-12-01T19:31:42.342Z,13.856187290969899
2022-12-01T19:38:22.493Z,14.267558528428093
2022-12-01T19:44:59.953Z,15.595317725752508
2022-12-01T19:51:32.022Z,14.153846153846153
2022-12-01T19:58:02.017Z,14.220735785953178
2022-12-01T20:04:35.331Z,15.08361204013378
2022-12-01T20:11:17.639Z,15.334448160535118
2022-12-01T20:18:00.268Z,15.508361204013378
2022-12-01T20:24:34.561Z,14.82943143812709
2022-12-01T20:31:05.020Z,14.68561872909699
2022-12-01T20:51:50.147Z,15.979933110367893
2022-12-01T20:58:19.433Z,16.391304347826086
2022-12-01T21:04:52.278Z,16.17725752508361
2022-12-01T21:17:17.447Z,17.498327759197323
2022-12-01T21:24:06.989Z,17.65886287625418
2022-12-01T21:31:49.850Z,20.51839464882943
2022-12-01T21:40:05.339Z,19.80267558528428
2022-12-01T21:56:04.980Z,21.006688963210703
2022-12-01T22:06:47.484Z,21.327759197324415
2022-12-01T22:13:27.049Z,21.414715719063544
2022-12-01T22:23:52.096Z,21.933110367892976
2022-12-01T22:34:36.165Z,21.421404682274247
2022-12-01T22:41:11.976Z,22.046822742474916
2022-12-01T22:47:41.292Z,20.956521739130434
2022-12-01T23:05:03.698Z,20.578595317725753
2022-12-01T23:14:49.210Z,20.622073578595316
2022-12-01T23:24:55.509Z,20.17391304347826
2022-12-01T23:31:26.036Z,20.678929765886288
2022-12-01T23:37:54.008Z,20.96655518394649
2022-12-01T23:51:02.298Z,21.254180602006688
